createdAt,value
2017-04-29T00:00:25.673Z,0
2017-04-29T00:01:06.291Z,0
2017-04-29T00:01:46.972Z,0
2017-04-29T00:02:27.587Z,0
2017-04-29T00:03:08.256Z,0
2017-04-29T00:03:48.900Z,0
2017-04-29T00:04:29.585Z,0
2017-04-29T00:05:11.238Z,0
2017-04-29T00:05:51.880Z,0
2017-04-29T00:06:32.520Z,0
2017-04-29T00:07:13.187Z,0
2017-04-29T00:07:53.779Z,0
2017-04-29T00:08:34.345Z,0
2017-04-29T00:09:14.940Z,0
2017-04-29T00:09:55.605Z,0
2017-04-29T00:10:36.197Z,0
2017-04-29T00:11:16.737Z,0
2017-04-29T00:11:57.348Z,0
2017-04-29T00:12:38.002Z,0
2017-04-29T00:13:18.575Z,0
2017-04-29T00:13:59.206Z,0
2017-04-29T00:14:39.873Z,0
2017-04-29T00:15:20.439Z,0
2017-04-29T00:16:02.084Z,0
2017-04-29T00:16:42.740Z,0
2017-04-29T00:17:23.401Z,0
2017-04-29T00:18:04.040Z,0
2017-04-29T00:18:44.729Z,0
2017-04-29T00:19:25.348Z,0
2017-04-29T00:20:06.003Z,0
2017-04-29T00:20:46.658Z,0
2017-04-29T00:21:27.310Z,0
2017-04-29T00:22:07.983Z,0
2017-04-29T00:22:48.619Z,0
2017-04-29T00:23:29.271Z,0
2017-04-29T00:24:09.920Z,0
2017-04-29T00:24:50.571Z,0
2017-04-29T00:25:31.239Z,0
2017-04-29T00:26:11.882Z,0
2017-04-29T00:26:52.470Z,0
2017-04-29T00:27:33.022Z,0
2017-04-29T00:28:13.643Z,0
2017-04-29T00:28:54.274Z,0
2017-04-29T00:29:35.901Z,0
2017-04-29T00:30:16.476Z,0
2017-04-29T00:30:57.072Z,0
2017-04-29T00:31:37.709Z,0
2017-04-29T00:32:18.360Z,0
2017-04-29T00:33:00.043Z,0
2017-04-29T00:33:40.719Z,0
2017-04-29T00:34:22.379Z,0
2017-04-29T00:35:03.049Z,0
2017-04-29T00:35:44.500Z,0
2017-04-29T00:36:25.167Z,0
2017-04-29T00:37:05.846Z,0
2017-04-29T00:37:46.433Z,0
2017-04-29T00:38:27.108Z,0
2017-04-29T00:39:07.768Z,0
2017-04-29T00:39:48.458Z,0
2017-04-29T00:40:29.005Z,0
2017-04-29T00:41:09.634Z,0
2017-04-29T00:41:51.308Z,0
2017-04-29T00:42:31.946Z,0
2017-04-29T00:43:12.603Z,0
2017-04-29T00:43:53.242Z,0
2017-04-29T00:44:33.897Z,0
2017-04-29T00:45:14.557Z,0
2017-04-29T00:45:55.217Z,0
2017-04-29T00:46:35.857Z,0
2017-04-29T00:47:16.526Z,0
2017-04-29T00:47:58.198Z,0
2017-04-29T00:48:38.857Z,0
2017-04-29T00:49:19.495Z,0
2017-04-29T00:50:00.153Z,0
2017-04-29T00:50:40.819Z,0
2017-04-29T00:51:21.477Z,0
2017-04-29T00:52:02.154Z,0
2017-04-29T00:52:42.731Z,0
2017-04-29T00:53:23.346Z,0
2017-04-29T00:54:03.973Z,0
2017-04-29T00:54:44.664Z,0
2017-04-29T00:55:25.294Z,0
2017-04-29T00:56:05.922Z,0
2017-04-29T00:56:46.586Z,0
2017-04-29T00:57:27.267Z,0
2017-04-29T00:58:07.847Z,0
2017-04-29T00:58:48.548Z,0
2017-04-29T00:59:29.184Z,0
2017-04-29T01:00:09.782Z,0
2017-04-29T01:00:50.389Z,0
2017-04-29T01:01:31.044Z,0
2017-04-29T01:02:11.697Z,0
2017-04-29T01:02:52.393Z,0
2017-04-29T01:03:32.959Z,0
2017-04-29T01:04:14.590Z,0
2017-04-29T01:04:55.251Z,0
2017-04-29T01:05:35.910Z,0
2017-04-29T01:06:16.493Z,0
2017-04-29T01:06:57.165Z,0
2017-04-29T01:07:37.836Z,0
2017-04-29T01:08:18.495Z,0
2017-04-29T01:09:00.158Z,0
2017-04-29T01:09:41.851Z,0
2017-04-29T01:10:22.482Z,0
2017-04-29T01:11:03.237Z,0
2017-04-29T01:11:43.905Z,0
2017-04-29T01:12:24.586Z,0
2017-04-29T01:13:05.224Z,0
2017-04-29T01:13:46.883Z,0
2017-04-29T01:14:27.545Z,0
2017-04-29T01:15:08.222Z,0
2017-04-29T01:15:48.784Z,0
2017-04-29T01:16:29.356Z,0
2017-04-29T01:17:11.062Z,0
2017-04-29T01:17:51.642Z,0
2017-04-29T01:18:32.284Z,0
2017-04-29T01:19:13.942Z,0
2017-04-29T01:19:54.511Z,0
2017-04-29T01:20:36.226Z,0
2017-04-29T01:21:17.863Z,0
2017-04-29T01:21:58.415Z,0
2017-04-29T01:22:40.093Z,0
2017-04-29T01:23:20.733Z,0
2017-04-29T01:24:01.385Z,0
2017-04-29T01:24:42.058Z,0
2017-04-29T01:25:22.693Z,0
2017-04-29T01:26:03.349Z,0
2017-04-29T01:26:43.989Z,0
2017-04-29T01:27:24.641Z,0
2017-04-29T01:28:05.309Z,0
2017-04-29T01:28:46.991Z,0
2017-04-29T01:29:28.659Z,0
2017-04-29T01:30:09.311Z,0
2017-04-29T01:30:49.959Z,0
2017-04-29T01:31:30.608Z,0
2017-04-29T01:32:11.274Z,0
2017-04-29T01:32:52.946Z,0
2017-04-29T01:33:33.508Z,0
2017-04-29T01:34:14.162Z,0
2017-04-29T01:34:54.830Z,0
2017-04-29T01:35:35.364Z,0
2017-04-29T01:36:15.995Z,0
2017-04-29T01:36:56.665Z,0
2017-04-29T01:37:37.234Z,0
2017-04-29T01:38:17.873Z,0
2017-04-29T01:38:59.547Z,0
2017-04-29T01:39:40.097Z,0
2017-04-29T01:40:20.753Z,0
2017-04-29T01:41:01.384Z,0
2017-04-29T01:41:41.938Z,0
2017-04-29T01:42:22.598Z,0
2017-04-29T01:43:03.238Z,0
2017-04-29T01:43:43.941Z,0
2017-04-29T01:44:24.569Z,0
2017-04-29T01:45:05.206Z,0
2017-04-29T01:45:45.869Z,0
2017-04-29T01:46:26.556Z,0
2017-04-29T01:47:07.121Z,0
2017-04-29T01:47:47.973Z,0
2017-04-29T01:48:28.851Z,0
2017-04-29T01:49:10.552Z,0
2017-04-29T01:49:51.291Z,0
2017-04-29T01:50:31.960Z,0
2017-04-29T01:51:13.304Z,0
2017-04-29T01:51:54.003Z,0
2017-04-29T01:52:34.653Z,0
2017-04-29T01:53:15.296Z,0
2017-04-29T01:53:55.944Z,0
2017-04-29T01:54:36.602Z,0
2017-04-29T01:55:17.277Z,0
2017-04-29T01:55:57.926Z,0
2017-04-29T01:56:39.577Z,0
2017-04-29T01:57:20.232Z,0
2017-04-29T01:58:02.932Z,0
2017-04-29T01:58:44.611Z,0
2017-04-29T01:59:25.272Z,0
2017-04-29T02:00:05.915Z,0
2017-04-29T02:00:46.566Z,0
2017-04-29T02:01:27.232Z,0
2017-04-29T02:02:07.877Z,0
2017-04-29T02:02:48.580Z,0
2017-04-29T02:03:29.281Z,0
2017-04-29T02:04:09.827Z,0
2017-04-29T02:04:50.536Z,0
2017-04-29T02:05:31.193Z,0
2017-04-29T02:06:11.894Z,0
2017-04-29T02:06:52.449Z,0
2017-04-29T02:07:33.149Z,0
2017-04-29T02:08:13.740Z,0
2017-04-29T02:08:54.468Z,0
2017-04-29T02:09:35.214Z,0
2017-04-29T02:10:15.828Z,0
2017-04-29T02:10:56.532Z,0
2017-04-29T02:11:37.273Z,0
2017-04-29T02:12:17.859Z,0
2017-04-29T02:12:58.609Z,0
2017-04-29T02:13:39.331Z,0
2017-04-29T02:14:19.883Z,0
2017-04-29T02:15:00.639Z,0
2017-04-29T02:15:41.410Z,0
2017-04-29T02:16:22.001Z,0
2017-04-29T02:17:02.723Z,0
2017-04-29T02:17:43.473Z,0
2017-04-29T02:18:24.227Z,0
2017-04-29T02:19:04.964Z,0
2017-04-29T02:19:45.719Z,0
2017-04-29T02:20:26.472Z,0
2017-04-29T02:21:07.165Z,0
2017-04-29T02:21:47.896Z,0
2017-04-29T02:22:28.584Z,0
2017-04-29T02:23:09.139Z,0
2017-04-29T02:23:49.839Z,0
2017-04-29T02:24:30.390Z,0
2017-04-29T02:25:11.062Z,0
2017-04-29T02:25:51.801Z,0
2017-04-29T02:26:32.503Z,0
2017-04-29T02:27:13.079Z,0
2017-04-29T02:27:53.771Z,0
2017-04-29T02:28:34.357Z,0
2017-04-29T02:29:15.100Z,0
2017-04-29T02:29:55.839Z,0
2017-04-29T02:30:36.415Z,0
2017-04-29T02:31:17.199Z,0
2017-04-29T02:31:57.791Z,0
2017-04-29T02:32:38.434Z,0
2017-04-29T02:33:19.025Z,0
2017-04-29T02:33:59.739Z,0
2017-04-29T02:34:40.463Z,0
2017-04-29T02:35:21.144Z,0
2017-04-29T02:36:01.717Z,0
2017-04-29T02:36:42.436Z,0
2017-04-29T02:37:23.062Z,0
2017-04-29T02:38:03.756Z,0
2017-04-29T02:38:59.160Z,0
2017-04-29T02:39:39.750Z,0
2017-04-29T02:40:20.459Z,0
2017-04-29T02:41:01.077Z,0
2017-04-29T02:41:41.666Z,0
2017-04-29T02:42:22.551Z,0
2017-04-29T02:43:03.234Z,0
2017-04-29T02:43:43.931Z,0
2017-04-29T02:44:24.644Z,0
2017-04-29T02:45:05.308Z,0
2017-04-29T02:45:45.990Z,0
2017-04-29T02:46:26.601Z,0
2017-04-29T02:47:07.250Z,0
2017-04-29T02:47:48.960Z,0
2017-04-29T02:48:29.630Z,0
2017-04-29T02:49:10.216Z,0
2017-04-29T02:49:51.914Z,0
2017-04-29T02:50:32.527Z,0
2017-04-29T02:51:13.160Z,0
2017-04-29T02:51:53.752Z,0
2017-04-29T02:52:34.440Z,0
2017-04-29T02:53:15.086Z,0
2017-04-29T02:53:55.773Z,0
2017-04-29T02:54:36.328Z,0
2017-04-29T02:55:17.045Z,0
2017-04-29T02:55:57.750Z,0
2017-04-29T02:56:38.341Z,0
2017-04-29T02:57:18.946Z,0
2017-04-29T02:57:59.617Z,0
2017-04-29T02:58:40.273Z,0
2017-04-29T02:59:20.957Z,0
2017-04-29T03:00:01.524Z,0
2017-04-29T03:00:43.149Z,0
2017-04-29T03:01:23.795Z,0
2017-04-29T03:02:04.385Z,0
2017-04-29T03:02:45.035Z,0
2017-04-29T03:03:25.691Z,0
2017-04-29T03:04:06.345Z,0
2017-04-29T03:04:47.004Z,0
2017-04-29T03:05:27.650Z,0
2017-04-29T03:06:08.299Z,0
2017-04-29T03:06:48.953Z,0
2017-04-29T03:07:29.608Z,0
2017-04-29T03:08:10.259Z,0
2017-04-29T03:08:50.812Z,0
2017-04-29T03:09:31.465Z,0
2017-04-29T03:10:12.120Z,0
2017-04-29T03:10:52.767Z,0
2017-04-29T03:11:33.420Z,0
2017-04-29T03:12:14.076Z,0
2017-04-29T03:12:54.726Z,0
2017-04-29T03:13:35.464Z,0
2017-04-29T03:14:16.137Z,0
2017-04-29T03:14:56.789Z,0
2017-04-29T03:15:37.441Z,0
2017-04-29T03:16:18.099Z,0
2017-04-29T03:16:58.766Z,0
2017-04-29T03:17:39.329Z,0
2017-04-29T03:18:19.907Z,0
2017-04-29T03:19:00.555Z,0
2017-04-29T03:19:41.149Z,0
2017-04-29T03:20:21.707Z,0
2017-04-29T03:21:02.314Z,0
2017-04-29T03:21:42.960Z,0
2017-04-29T03:22:23.562Z,0
2017-04-29T03:23:04.121Z,0
2017-04-29T03:23:44.720Z,0
2017-04-29T03:24:25.375Z,0
2017-04-29T03:25:05.943Z,0
2017-04-29T03:25:46.585Z,0
2017-04-29T03:26:27.233Z,0
2017-04-29T03:27:07.823Z,0
2017-04-29T03:27:48.474Z,0
2017-04-29T03:28:29.128Z,0
2017-04-29T03:29:09.779Z,0
2017-04-29T03:29:50.433Z,0
2017-04-29T03:30:31.086Z,0
2017-04-29T03:31:11.740Z,0
2017-04-29T03:31:52.404Z,0
2017-04-29T03:32:32.947Z,0
2017-04-29T03:33:13.573Z,0
2017-04-29T03:33:54.207Z,0
2017-04-29T03:34:34.801Z,0
2017-04-29T03:35:15.345Z,0
2017-04-29T03:35:55.963Z,0
2017-04-29T03:36:36.612Z,0
2017-04-29T03:37:17.208Z,0
2017-04-29T03:37:57.856Z,0
2017-04-29T03:38:38.517Z,0
2017-04-29T03:39:19.166Z,0
2017-04-29T03:39:59.821Z,0
2017-04-29T03:40:40.468Z,0
2017-04-29T03:41:21.125Z,0
2017-04-29T03:42:01.773Z,0
2017-04-29T03:42:42.335Z,0
2017-04-29T03:43:22.938Z,0
2017-04-29T03:44:03.609Z,0
2017-04-29T03:44:44.281Z,0
2017-04-29T03:45:24.840Z,0
2017-04-29T03:46:05.438Z,0
2017-04-29T03:46:46.107Z,0
2017-04-29T03:47:26.690Z,0
2017-04-29T03:48:07.255Z,0
2017-04-29T03:48:47.846Z,0
2017-04-29T03:49:28.519Z,0
2017-04-29T03:50:09.128Z,0
2017-04-29T03:50:49.700Z,0
2017-04-29T03:51:30.380Z,0
2017-04-29T03:52:11.015Z,0
2017-04-29T03:52:51.707Z,0
2017-04-29T03:53:32.273Z,0
2017-04-29T03:54:12.890Z,0
2017-04-29T03:54:54.556Z,0
2017-04-29T03:55:35.142Z,0
2017-04-29T03:56:16.424Z,0
2017-04-29T03:56:57.034Z,0
2017-04-29T03:57:37.691Z,0
2017-04-29T03:58:18.399Z,0
2017-04-29T03:58:58.997Z,0
2017-04-29T03:59:39.641Z,0
2017-04-29T04:00:20.299Z,0
2017-04-29T04:01:00.977Z,0
2017-04-29T04:01:41.583Z,0
2017-04-29T04:02:22.249Z,0
2017-04-29T04:03:03.814Z,0
2017-04-29T04:03:44.488Z,0
2017-04-29T04:04:25.138Z,0
2017-04-29T04:05:05.789Z,0
2017-04-29T04:05:46.441Z,0
2017-04-29T04:06:27.090Z,0
2017-04-29T04:07:07.740Z,0
2017-04-29T04:07:48.386Z,0
2017-04-29T04:08:29.040Z,0
2017-04-29T04:09:10.716Z,0
2017-04-29T04:09:51.368Z,0
2017-04-29T04:10:32.021Z,0
2017-04-29T04:11:12.678Z,0
2017-04-29T04:11:53.327Z,0
2017-04-29T04:12:33.884Z,0
2017-04-29T04:13:14.542Z,0
2017-04-29T04:13:55.190Z,5
2017-04-29T04:14:35.752Z,5
2017-04-29T04:15:16.387Z,5
2017-04-29T04:15:57.034Z,5
2017-04-29T04:16:37.603Z,5
2017-04-29T04:17:18.234Z,5
2017-04-29T04:17:58.896Z,5
2017-04-29T04:18:39.449Z,5
2017-04-29T04:19:20.093Z,5
2017-04-29T04:20:00.757Z,5
2017-04-29T04:20:41.322Z,5
2017-04-29T04:21:22.007Z,5
2017-04-29T04:22:02.605Z,5
2017-04-29T04:22:43.177Z,10
2017-04-29T04:23:23.856Z,10
2017-04-29T04:24:04.463Z,10
2017-04-29T04:24:45.055Z,10
2017-04-29T04:25:25.643Z,10
2017-04-29T04:26:06.314Z,10
2017-04-29T04:26:46.967Z,10
2017-04-29T04:27:27.568Z,10
2017-04-29T04:28:08.169Z,10
2017-04-29T04:28:48.851Z,10
2017-04-29T04:29:29.480Z,10
2017-04-29T04:30:11.099Z,10
2017-04-29T04:30:51.653Z,10
2017-04-29T04:31:32.254Z,10
2017-04-29T04:32:12.907Z,10
2017-04-29T04:32:53.502Z,10
2017-04-29T04:33:34.056Z,15
2017-04-29T04:34:14.677Z,15
2017-04-29T04:34:55.314Z,15
2017-04-29T04:35:35.908Z,15
2017-04-29T04:36:16.459Z,15
2017-04-29T04:36:57.067Z,15
2017-04-29T04:37:37.729Z,15
2017-04-29T04:38:18.315Z,15
2017-04-29T04:38:58.908Z,15
2017-04-29T04:39:39.576Z,15
2017-04-29T04:40:20.237Z,15
2017-04-29T04:41:00.828Z,15
2017-04-29T04:41:41.380Z,15
2017-04-29T04:42:21.956Z,15
2017-04-29T04:43:02.534Z,20
2017-04-29T04:43:43.129Z,20
2017-04-29T04:44:23.729Z,20
2017-04-29T04:45:04.401Z,20
2017-04-29T04:45:45.046Z,20
2017-04-29T04:46:25.621Z,20
2017-04-29T04:47:06.190Z,20
2017-04-29T04:47:46.828Z,25
2017-04-29T04:48:27.454Z,25
2017-04-29T04:49:08.045Z,25
2017-04-29T04:49:48.606Z,25
2017-04-29T04:50:29.234Z,25
2017-04-29T04:51:09.857Z,25
2017-04-29T04:51:50.451Z,25
2017-04-29T04:52:31.024Z,25
2017-04-29T04:53:11.613Z,25
2017-04-29T04:53:52.277Z,25
2017-04-29T04:54:32.915Z,30
2017-04-29T04:55:13.572Z,30
2017-04-29T04:55:54.238Z,30
2017-04-29T04:56:34.900Z,30
2017-04-29T04:57:15.522Z,30
2017-04-29T04:57:56.225Z,35
2017-04-29T04:58:36.800Z,35
2017-04-29T04:59:17.386Z,35
2017-04-29T04:59:58.040Z,35
2017-04-29T05:00:38.633Z,35
2017-04-29T05:01:19.191Z,35
2017-04-29T05:01:59.849Z,30
2017-04-29T05:02:41.471Z,30
2017-04-29T05:03:22.140Z,30
2017-04-29T05:04:02.768Z,30
2017-04-29T05:04:43.443Z,30
2017-04-29T05:05:24.098Z,30
2017-04-29T05:06:05.771Z,30
2017-04-29T05:06:46.407Z,30
2017-04-29T05:07:27.078Z,35
2017-04-29T05:08:07.723Z,35
2017-04-29T05:08:48.364Z,35
2017-04-29T05:09:29.016Z,35
2017-04-29T05:10:09.687Z,35
2017-04-29T05:10:50.324Z,35
2017-04-29T05:11:30.974Z,35
2017-04-29T05:12:11.634Z,35
2017-04-29T05:12:52.226Z,35
2017-04-29T05:13:32.789Z,35
2017-04-29T05:14:13.378Z,35
2017-04-29T05:14:54.954Z,35
2017-04-29T05:15:35.658Z,35
2017-04-29T05:16:16.219Z,35
2017-04-29T05:16:56.838Z,35
2017-04-29T05:17:37.475Z,35
2017-04-29T05:18:18.135Z,40
2017-04-29T05:18:58.780Z,40
2017-04-29T05:19:39.434Z,40
2017-04-29T05:20:20.091Z,40
2017-04-29T05:21:00.736Z,40
2017-04-29T05:21:41.395Z,40
2017-04-29T05:22:22.051Z,40
2017-04-29T05:23:02.699Z,40
2017-04-29T05:23:43.353Z,40
2017-04-29T05:24:23.997Z,45
2017-04-29T05:25:04.642Z,45
2017-04-29T05:25:45.236Z,45
2017-04-29T05:26:25.823Z,45
2017-04-29T05:27:06.599Z,45
2017-04-29T05:27:47.253Z,50
2017-04-29T05:28:28.024Z,50
2017-04-29T05:29:08.696Z,55
2017-04-29T05:29:49.264Z,55
2017-04-29T05:30:29.958Z,60
2017-04-29T05:31:10.718Z,60
2017-04-29T05:31:51.415Z,60
2017-04-29T05:32:31.995Z,60
2017-04-29T05:33:12.679Z,60
2017-04-29T05:33:53.438Z,60
2017-04-29T05:34:34.180Z,60
2017-04-29T05:35:14.945Z,60
2017-04-29T05:35:55.690Z,60
2017-04-29T05:36:36.457Z,60
2017-04-29T05:37:17.211Z,60
2017-04-29T05:37:57.935Z,60
2017-04-29T05:38:38.570Z,60
2017-04-29T05:39:19.278Z,60
2017-04-29T05:40:00.035Z,60
2017-04-29T05:40:40.787Z,60
2017-04-29T05:41:21.546Z,60
2017-04-29T05:42:02.307Z,60
2017-04-29T05:42:43.056Z,60
2017-04-29T05:43:23.822Z,60
2017-04-29T05:44:04.562Z,60
2017-04-29T05:44:45.319Z,60
2017-04-29T05:45:26.083Z,65
2017-04-29T05:46:06.943Z,65
2017-04-29T05:46:47.692Z,70
2017-04-29T05:47:28.469Z,70
2017-04-29T05:48:09.246Z,75
2017-04-29T05:48:49.808Z,75
2017-04-29T05:49:30.517Z,75
2017-04-29T05:50:11.257Z,75
2017-04-29T05:50:51.981Z,80
2017-04-29T05:51:32.561Z,80
2017-04-29T05:52:13.345Z,80
2017-04-29T05:52:54.113Z,80
2017-04-29T05:53:34.882Z,80
2017-04-29T05:54:15.445Z,80
2017-04-29T05:54:56.174Z,85
2017-04-29T05:55:36.900Z,90
2017-04-29T05:56:17.589Z,90
2017-04-29T05:56:58.178Z,95
2017-04-29T05:57:38.871Z,95
2017-04-29T05:58:19.605Z,95
2017-04-29T05:59:00.364Z,95
2017-04-29T05:59:41.126Z,95
2017-04-29T06:00:21.885Z,95
2017-04-29T06:01:02.641Z,90
2017-04-29T06:01:43.406Z,90
2017-04-29T06:02:24.151Z,95
2017-04-29T06:03:04.701Z,95
2017-04-29T06:03:45.459Z,95
2017-04-29T06:04:26.214Z,100
2017-04-29T06:05:06.786Z,100
2017-04-29T06:05:47.513Z,105
2017-04-29T06:06:28.269Z,110
2017-04-29T06:07:08.835Z,115
2017-04-29T06:07:49.593Z,120
2017-04-29T06:08:30.330Z,125
2017-04-29T06:09:11.027Z,130
2017-04-29T06:09:51.619Z,135
2017-04-29T06:10:32.395Z,140
2017-04-29T06:11:13.146Z,140
2017-04-29T06:11:53.842Z,140
2017-04-29T06:12:34.413Z,140
2017-04-29T06:13:15.112Z,140
2017-04-29T06:13:55.880Z,135
2017-04-29T06:14:36.655Z,135
2017-04-29T06:15:17.237Z,135
2017-04-29T06:15:58.022Z,130
2017-04-29T06:16:38.602Z,130
2017-04-29T06:17:19.220Z,125
2017-04-29T06:17:59.993Z,125
2017-04-29T06:18:40.776Z,120
2017-04-29T06:19:21.346Z,120
2017-04-29T06:20:01.941Z,115
2017-04-29T06:20:42.591Z,115
2017-04-29T06:21:24.311Z,115
2017-04-29T06:22:04.879Z,115
2017-04-29T06:22:46.502Z,115
2017-04-29T06:23:27.150Z,115
2017-04-29T06:24:07.714Z,115
2017-04-29T06:24:48.350Z,115
2017-04-29T06:25:29.052Z,115
2017-04-29T06:26:09.624Z,115
2017-04-29T06:26:50.270Z,115
2017-04-29T06:27:30.933Z,120
2017-04-29T06:28:11.619Z,120
2017-04-29T06:28:52.182Z,120
2017-04-29T06:29:32.877Z,120
2017-04-29T06:30:14.077Z,120
2017-04-29T06:30:54.732Z,125
2017-04-29T06:31:35.295Z,125
2017-04-29T06:32:15.860Z,130
2017-04-29T06:32:56.529Z,135
2017-04-29T06:33:37.200Z,140
2017-04-29T06:34:17.859Z,140
2017-04-29T06:34:58.510Z,145
2017-04-29T06:35:39.186Z,145
2017-04-29T06:36:19.821Z,145
2017-04-29T06:37:00.461Z,145
2017-04-29T06:37:41.113Z,140
2017-04-29T06:38:22.282Z,135
2017-04-29T06:39:02.939Z,135
2017-04-29T06:39:43.586Z,130
2017-04-29T06:40:24.247Z,130
2017-04-29T06:41:04.896Z,135
2017-04-29T06:41:45.547Z,140
2017-04-29T06:42:26.234Z,145
2017-04-29T06:43:06.902Z,150
2017-04-29T06:43:47.463Z,155
2017-04-29T06:44:28.173Z,160
2017-04-29T06:45:08.921Z,170
2017-04-29T06:45:49.617Z,175
2017-04-29T06:46:30.195Z,180
2017-04-29T06:47:10.879Z,185
2017-04-29T06:47:51.530Z,190
2017-04-29T06:48:32.190Z,190
2017-04-29T06:49:12.950Z,185
2017-04-29T06:49:53.711Z,185
2017-04-29T06:50:34.347Z,180
2017-04-29T06:51:15.006Z,180
2017-04-29T06:51:55.752Z,175
2017-04-29T06:52:36.413Z,175
2017-04-29T06:53:17.098Z,175
2017-04-29T06:53:57.683Z,175
2017-04-29T06:54:38.373Z,175
2017-04-29T06:55:19.130Z,175
2017-04-29T06:55:59.814Z,180
2017-04-29T06:56:40.405Z,180
2017-04-29T06:57:21.087Z,190
2017-04-29T06:58:01.839Z,190
2017-04-29T06:58:42.535Z,195
2017-04-29T06:59:23.093Z,195
2017-04-29T07:00:03.792Z,195
2017-04-29T07:00:44.447Z,190
2017-04-29T07:01:26.926Z,190
2017-04-29T07:02:07.536Z,190
2017-04-29T07:02:48.301Z,195
2017-04-29T07:03:29.050Z,200
2017-04-29T07:04:09.798Z,210
2017-04-29T07:04:50.558Z,215
2017-04-29T07:05:31.252Z,220
2017-04-29T07:06:12.179Z,220
2017-04-29T07:06:52.817Z,225
2017-04-29T07:07:33.387Z,225
2017-04-29T07:08:14.021Z,225
2017-04-29T07:08:54.969Z,220
2017-04-29T07:09:35.644Z,220
2017-04-29T07:10:16.336Z,215
2017-04-29T07:10:56.939Z,215
2017-04-29T07:11:37.617Z,210
2017-04-29T07:12:18.254Z,205
2017-04-29T07:12:58.947Z,205
2017-04-29T07:13:39.512Z,205
2017-04-29T07:14:20.126Z,205
2017-04-29T07:15:00.756Z,210
2017-04-29T07:15:41.356Z,210
2017-04-29T07:16:21.917Z,210
2017-04-29T07:17:02.546Z,210
2017-04-29T07:17:43.162Z,215
2017-04-29T07:18:23.829Z,220
2017-04-29T07:19:04.470Z,220
2017-04-29T07:19:45.171Z,220
2017-04-29T07:20:25.841Z,220
2017-04-29T07:21:06.476Z,215
2017-04-29T07:21:47.087Z,210
2017-04-29T07:22:27.745Z,205
2017-04-29T07:23:08.434Z,210
2017-04-29T07:23:48.981Z,210
2017-04-29T07:24:29.547Z,215
2017-04-29T07:25:10.230Z,215
2017-04-29T07:25:50.924Z,220
2017-04-29T07:26:31.503Z,225
2017-04-29T07:27:12.197Z,225
2017-04-29T07:27:52.940Z,230
2017-04-29T07:28:33.737Z,230
2017-04-29T07:29:14.296Z,230
2017-04-29T07:29:55.012Z,235
2017-04-29T07:30:35.768Z,235
2017-04-29T07:31:16.561Z,235
2017-04-29T07:31:57.180Z,230
2017-04-29T07:32:37.919Z,225
2017-04-29T07:33:18.645Z,220
2017-04-29T07:33:59.321Z,215
2017-04-29T07:34:40.063Z,215
2017-04-29T07:35:20.811Z,215
2017-04-29T07:36:01.380Z,210
2017-04-29T07:36:42.017Z,205
2017-04-29T07:37:23.623Z,200
2017-04-29T07:38:04.220Z,200
2017-04-29T07:38:45.820Z,205
2017-04-29T07:39:26.471Z,210
2017-04-29T07:40:07.051Z,220
2017-04-29T07:40:47.612Z,220
2017-04-29T07:41:28.476Z,220
2017-04-29T07:42:09.937Z,220
2017-04-29T07:42:50.528Z,220
2017-04-29T07:43:32.132Z,220
2017-04-29T07:44:12.767Z,220
2017-04-29T07:44:53.480Z,230
2017-04-29T07:45:41.494Z,230
2017-04-29T07:46:22.923Z,225
2017-04-29T07:47:06.210Z,220
2017-04-29T07:47:47.824Z,220
2017-04-29T07:48:28.464Z,215
2017-04-29T07:49:09.134Z,215
2017-04-29T07:49:49.831Z,205
2017-04-29T07:50:30.433Z,205
2017-04-29T07:51:11.084Z,200
2017-04-29T07:51:51.739Z,205
2017-04-29T07:52:32.433Z,210
2017-04-29T07:53:13.011Z,210
2017-04-29T07:53:53.621Z,210
2017-04-29T07:54:34.244Z,220
2017-04-29T07:55:14.843Z,225
2017-04-29T07:55:55.515Z,220
2017-04-29T07:56:36.100Z,210
2017-04-29T07:57:16.670Z,215
2017-04-29T07:57:57.334Z,215
2017-04-29T07:58:37.956Z,210
2017-04-29T07:59:18.558Z,200
2017-04-29T08:00:00.197Z,200
2017-04-29T08:00:40.841Z,205
2017-04-29T08:01:21.537Z,215
2017-04-29T08:02:02.118Z,225
2017-04-29T08:02:42.837Z,230
2017-04-29T08:03:23.525Z,225
2017-04-29T08:04:04.213Z,210
2017-04-29T08:04:44.866Z,195
2017-04-29T08:05:25.509Z,180
2017-04-29T08:06:06.164Z,160
2017-04-29T08:06:46.818Z,145
2017-04-29T08:07:27.408Z,140
2017-04-29T08:08:08.021Z,140
2017-04-29T08:08:48.742Z,135
2017-04-29T08:09:29.423Z,135
2017-04-29T08:10:10.079Z,135
2017-04-29T08:10:50.731Z,130
2017-04-29T08:11:31.390Z,130
2017-04-29T08:12:12.041Z,125
2017-04-29T08:12:52.687Z,130
2017-04-29T08:13:33.374Z,140
2017-04-29T08:14:14.026Z,145
2017-04-29T08:14:54.676Z,145
2017-04-29T08:15:35.301Z,150
2017-04-29T08:16:15.996Z,155
2017-04-29T08:16:56.656Z,160
2017-04-29T08:17:37.318Z,170
2017-04-29T08:18:17.954Z,170
2017-04-29T08:18:58.577Z,165
2017-04-29T08:19:39.244Z,165
2017-04-29T08:20:19.866Z,170
2017-04-29T08:21:00.535Z,175
2017-04-29T08:21:41.217Z,175
2017-04-29T08:22:21.837Z,175
2017-04-29T08:23:02.521Z,180
2017-04-29T08:23:43.166Z,185
2017-04-29T08:24:23.787Z,185
2017-04-29T08:25:04.443Z,200
2017-04-29T08:25:45.132Z,205
2017-04-29T08:26:25.745Z,205
2017-04-29T08:27:06.403Z,200
2017-04-29T08:27:47.062Z,190
2017-04-29T08:28:27.653Z,180
2017-04-29T08:29:08.220Z,175
2017-04-29T08:29:48.808Z,170
2017-04-29T08:30:29.471Z,165
2017-04-29T08:31:10.158Z,165
2017-04-29T08:31:50.754Z,170
2017-04-29T08:32:31.319Z,175
2017-04-29T08:33:11.917Z,180
2017-04-29T08:33:52.534Z,180
2017-04-29T08:34:33.196Z,185
2017-04-29T08:35:13.849Z,190
2017-04-29T08:35:54.477Z,195
2017-04-29T08:36:35.182Z,200
2017-04-29T08:37:15.790Z,190
2017-04-29T08:37:56.433Z,180
2017-04-29T08:38:37.037Z,170
2017-04-29T08:39:17.597Z,160
2017-04-29T08:39:58.203Z,145
2017-04-29T08:40:39.820Z,135
2017-04-29T08:41:20.364Z,120
2017-04-29T08:42:00.918Z,110
2017-04-29T08:42:41.527Z,105
2017-04-29T08:43:23.145Z,95
2017-04-29T08:44:03.801Z,90
2017-04-29T08:44:44.450Z,85
2017-04-29T08:45:25.103Z,85
2017-04-29T08:46:05.755Z,90
2017-04-29T08:46:46.432Z,95
2017-04-29T08:47:27.060Z,105
2017-04-29T08:48:07.611Z,110
2017-04-29T08:48:48.218Z,120
2017-04-29T08:49:28.867Z,125
2017-04-29T08:50:09.571Z,130
2017-04-29T08:50:50.181Z,135
2017-04-29T08:51:30.848Z,140
2017-04-29T08:52:11.425Z,145
2017-04-29T08:52:52.016Z,140
2017-04-29T08:53:32.706Z,140
2017-04-29T08:54:13.359Z,135
2017-04-29T08:54:54.036Z,130
2017-04-29T08:55:34.599Z,130
2017-04-29T08:56:15.212Z,130
2017-04-29T08:56:56.872Z,125
2017-04-29T08:57:37.568Z,135
2017-04-29T08:58:18.134Z,135
2017-04-29T08:58:59.772Z,130
2017-04-29T08:59:40.436Z,135
2017-04-29T09:00:22.128Z,140
2017-04-29T09:01:02.737Z,145
2017-04-29T09:01:43.548Z,155
2017-04-29T09:02:24.164Z,175
2017-04-29T09:03:04.796Z,180
2017-04-29T09:03:45.500Z,195
2017-04-29T09:04:26.079Z,215
2017-04-29T09:05:06.670Z,230
2017-04-29T09:05:47.328Z,240
2017-04-29T09:06:27.902Z,240
2017-04-29T09:07:08.463Z,220
2017-04-29T09:07:49.080Z,215
2017-04-29T09:08:29.730Z,205
2017-04-29T09:09:10.310Z,200
2017-04-29T09:09:50.953Z,195
2017-04-29T09:10:31.598Z,190
2017-04-29T09:11:12.238Z,185
2017-04-29T09:11:52.823Z,175
2017-04-29T09:12:33.398Z,170
2017-04-29T09:13:15.007Z,170
2017-04-29T09:13:55.667Z,170
2017-04-29T09:14:36.351Z,165
2017-04-29T09:15:16.904Z,175
2017-04-29T09:15:57.574Z,175
2017-04-29T09:16:38.177Z,165
2017-04-29T09:17:18.737Z,170
2017-04-29T09:17:59.382Z,180
2017-04-29T09:18:39.964Z,190
2017-04-29T09:19:20.653Z,200
2017-04-29T09:20:01.337Z,205
2017-04-29T09:20:41.998Z,210
2017-04-29T09:21:22.583Z,205
2017-04-29T09:22:03.221Z,210
2017-04-29T09:22:43.848Z,230
2017-04-29T09:23:24.581Z,210
2017-04-29T09:24:05.247Z,215
2017-04-29T09:24:45.929Z,215
2017-04-29T09:25:26.569Z,220
2017-04-29T09:26:07.261Z,220
2017-04-29T09:26:47.958Z,225
2017-04-29T09:27:28.629Z,225
2017-04-29T09:28:09.277Z,230
2017-04-29T09:28:49.998Z,220
2017-04-29T09:29:30.571Z,210
2017-04-29T09:30:11.257Z,210
2017-04-29T09:30:51.913Z,210
2017-04-29T09:31:32.580Z,210
2017-04-29T09:32:13.160Z,210
2017-04-29T09:32:53.749Z,205
2017-04-29T09:33:34.400Z,200
2017-04-29T09:34:15.050Z,195
2017-04-29T09:34:55.700Z,195
2017-04-29T09:35:36.359Z,190
2017-04-29T09:36:17.038Z,185
2017-04-29T09:36:57.702Z,180
2017-04-29T09:37:39.334Z,175
2017-04-29T09:38:20.032Z,170
2017-04-29T09:39:00.643Z,165
2017-04-29T09:39:41.404Z,160
2017-04-29T09:40:22.058Z,155
2017-04-29T09:41:03.718Z,150
2017-04-29T09:41:44.270Z,145
2017-04-29T09:42:24.938Z,145
2017-04-29T09:43:05.631Z,140